createdAt,value
2017-08-08T00:00:13.790Z,45.8
2017-08-08T00:01:15.921Z,46.2
2017-08-08T00:02:17.717Z,46.2
2017-08-08T00:03:19.492Z,46.2
2017-08-08T00:04:21.622Z,45.7
2017-08-08T00:05:23.402Z,46.2
2017-08-08T00:06:25.174Z,46.3
2017-08-08T00:07:26.974Z,46.2
2017-08-08T00:08:28.773Z,46
2017-08-08T00:09:30.241Z,46.2
2017-08-08T00:10:32.372Z,46.1
2017-08-08T00:11:34.517Z,46.3
2017-08-08T00:12:36.647Z,46.1
2017-08-08T00:13:38.516Z,46.1
2017-08-08T00:14:39.957Z,46.3
2017-08-08T00:15:42.089Z,46.1
2017-08-08T00:16:43.867Z,46.3
2017-08-08T00:17:44.979Z,46.3
2017-08-08T00:18:46.425Z,46.3
2017-08-08T00:19:48.554Z,46.2
2017-08-08T00:20:50.350Z,46.3
2017-08-08T00:21:52.150Z,46.2
2017-08-08T00:22:53.948Z,46.3
2017-08-08T00:23:55.747Z,46.4
2017-08-08T00:24:57.880Z,46.3
2017-08-08T00:25:59.656Z,46.3
2017-08-08T00:27:01.458Z,46.2
2017-08-08T00:28:03.251Z,46.2
2017-08-08T00:29:05.392Z,46.3
2017-08-08T00:30:07.521Z,46.2
2017-08-08T00:31:09.650Z,46.4
2017-08-08T00:32:11.425Z,46.3
2017-08-08T00:33:13.555Z,46.3
2017-08-08T00:34:15.693Z,46.2
2017-08-08T00:35:17.499Z,46.1
2017-08-08T00:36:19.633Z,46.3
2017-08-08T00:37:21.762Z,46.4
2017-08-08T00:38:23.204Z,46.3
2017-08-08T00:39:25.333Z,46.2
2017-08-08T00:40:27.135Z,46.1
2017-08-08T00:41:29.264Z,46.2
2017-08-08T00:42:30.383Z,46.2
2017-08-08T00:43:31.822Z,46.4
2017-08-08T00:44:33.621Z,46.3
2017-08-08T00:45:35.087Z,46.4
2017-08-08T00:46:36.211Z,46.5
2017-08-08T00:47:37.666Z,46.1
2017-08-08T00:48:39.797Z,46.5
2017-08-08T00:49:41.926Z,46.1
2017-08-08T00:50:43.384Z,46.4
2017-08-08T00:51:45.180Z,46.3
2017-08-08T00:52:45.956Z,46.3
2017-08-08T00:53:47.423Z,46.3
2017-08-08T00:54:49.554Z,46.3
2017-08-08T00:55:51.686Z,46.2
2017-08-08T00:56:53.817Z,46.4
2017-08-08T00:57:55.259Z,46.4
2017-08-08T00:58:57.056Z,46.4
2017-08-08T00:59:59.190Z,46.6
2017-08-08T01:01:00.652Z,46.2
2017-08-08T01:02:02.451Z,46.4
2017-08-08T01:03:03.562Z,46.2
2017-08-08T01:04:05.019Z,46.4
2017-08-08T01:05:06.486Z,46.2
2017-08-08T01:06:08.286Z,46.2
2017-08-08T01:07:10.417Z,46.2
2017-08-08T01:08:12.545Z,46.4
2017-08-08T01:09:14.675Z,46.5
2017-08-08T01:10:16.474Z,46.1
2017-08-08T01:11:18.274Z,46.4
2017-08-08T01:12:20.405Z,46.4
2017-08-08T01:13:22.201Z,46.5
2017-08-08T01:14:24.332Z,46.3
2017-08-08T01:15:26.132Z,46.3
2017-08-08T01:16:27.909Z,46.5
2017-08-08T01:17:30.040Z,46.4
2017-08-08T01:18:31.838Z,46.5
2017-08-08T01:19:33.636Z,46.2
2017-08-08T01:20:35.768Z,46.3
2017-08-08T01:21:37.897Z,46.6
2017-08-08T01:22:40.029Z,46.3
2017-08-08T01:23:41.155Z,46.5
2017-08-08T01:24:42.625Z,46.4
2017-08-08T01:25:44.422Z,46.4
2017-08-08T01:26:46.553Z,46.4
2017-08-08T01:27:48.681Z,46.3
2017-08-08T01:28:50.477Z,46.4
2017-08-08T01:29:52.272Z,46.3
2017-08-08T01:30:54.402Z,46.4
2017-08-08T01:31:56.222Z,46.3
2017-08-08T01:32:58.352Z,46.4
2017-08-08T01:34:00.152Z,46.4
2017-08-08T01:35:02.284Z,46.7
2017-08-08T01:36:04.082Z,46.3
2017-08-08T01:37:06.211Z,46.6
2017-08-08T01:38:08.338Z,46.3
2017-08-08T01:39:09.781Z,46.3
2017-08-08T01:40:11.248Z,46.5
2017-08-08T01:41:13.378Z,46.6
2017-08-08T01:42:15.154Z,46.4
2017-08-08T01:43:17.289Z,46.4
2017-08-08T01:44:19.130Z,46.3
2017-08-08T01:45:20.955Z,46.4
2017-08-08T01:46:22.751Z,46.4
2017-08-08T01:47:24.529Z,46.3
2017-08-08T01:48:26.326Z,46.3
2017-08-08T01:49:28.458Z,46.3
2017-08-08T01:50:30.588Z,46.4
2017-08-08T01:51:32.387Z,46.3
2017-08-08T01:52:34.184Z,46.2
2017-08-08T01:53:35.647Z,46.4
2017-08-08T01:54:36.770Z,46.5
2017-08-08T01:55:38.559Z,46.4
2017-08-08T01:56:40.364Z,46.4
2017-08-08T01:57:42.140Z,46.4
2017-08-08T01:58:44.273Z,46.4
2017-08-08T01:59:46.403Z,46.4
2017-08-08T02:00:48.186Z,46.4
2017-08-08T02:01:49.971Z,46.4
2017-08-08T02:02:51.419Z,46.4
2017-08-08T02:03:52.884Z,46.4
2017-08-08T02:04:54.665Z,46.4
2017-08-08T02:05:56.481Z,46.4
2017-08-08T02:06:58.276Z,46.5
2017-08-08T02:07:59.407Z,46.5
2017-08-08T02:09:00.518Z,46.2
2017-08-08T02:10:02.325Z,46.4
2017-08-08T02:11:03.766Z,46.4
2017-08-08T02:12:05.594Z,46.4
2017-08-08T02:13:07.724Z,46.5
2017-08-08T02:14:09.194Z,46.4
2017-08-08T02:15:10.996Z,46.5
2017-08-08T02:16:13.127Z,46.5
2017-08-08T02:17:15.259Z,46.5
2017-08-08T02:18:17.080Z,46.3
2017-08-08T02:19:18.845Z,46.5
2017-08-08T02:20:20.311Z,46.6
2017-08-08T02:21:22.442Z,46.6
2017-08-08T02:22:24.572Z,46.4
2017-08-08T02:23:26.039Z,46.6
2017-08-08T02:24:28.170Z,46.4
2017-08-08T02:25:30.301Z,46.6
2017-08-08T02:26:32.554Z,46.6
2017-08-08T02:27:34.362Z,46.6
2017-08-08T02:28:36.137Z,46.4
2017-08-08T02:29:37.938Z,46.4
2017-08-08T02:30:40.069Z,46.6
2017-08-08T02:31:41.867Z,46.6
2017-08-08T02:32:43.669Z,46.5
2017-08-08T02:33:45.797Z,46.4
2017-08-08T02:34:47.264Z,46.6
2017-08-08T02:35:49.061Z,46.6
2017-08-08T02:36:50.861Z,46.4
2017-08-08T02:37:52.989Z,46.4
2017-08-08T02:38:55.121Z,46.5
2017-08-08T02:39:57.250Z,46.7
2017-08-08T02:40:58.697Z,46.6
2017-08-08T02:42:00.828Z,46.4
2017-08-08T02:43:02.295Z,46.4
2017-08-08T02:44:04.097Z,46.4
2017-08-08T02:45:05.207Z,46.4
2017-08-08T02:46:07.005Z,46.5
2017-08-08T02:47:09.138Z,46.4
2017-08-08T02:48:11.268Z,46.6
2017-08-08T02:49:13.403Z,46.5
2017-08-08T02:50:15.201Z,46.5
2017-08-08T02:51:16.665Z,46.4
2017-08-08T02:52:18.463Z,46.6
2017-08-08T02:53:20.616Z,46.7
2017-08-08T02:54:22.059Z,46.5
2017-08-08T02:55:24.187Z,46.5
2017-08-08T02:56:26.317Z,46.5
2017-08-08T02:57:28.446Z,46.4
2017-08-08T02:58:30.576Z,46.6
2017-08-08T02:59:32.022Z,46.6
2017-08-08T03:00:33.834Z,46.6
2017-08-08T03:01:35.607Z,46.6
2017-08-08T03:02:37.735Z,46.6
2017-08-08T03:03:39.207Z,46.4
2017-08-08T03:04:41.339Z,46.6
2017-08-08T03:05:43.139Z,46.6
2017-08-08T03:06:44.605Z,46.5
2017-08-08T03:07:46.401Z,46.6
2017-08-08T03:08:48.529Z,46.6
2017-08-08T03:09:49.993Z,46.7
2017-08-08T03:10:52.138Z,46.6
2017-08-08T03:11:53.897Z,46.9
2017-08-08T03:12:55.004Z,46.6
2017-08-08T03:13:56.467Z,46.5
2017-08-08T03:14:57.934Z,46.9
2017-08-08T03:16:00.066Z,46.7
2017-08-08T03:17:01.180Z,46.9
2017-08-08T03:18:02.958Z,46.7
2017-08-08T03:19:04.401Z,46.4
2017-08-08T03:20:05.866Z,46.9
2017-08-08T03:21:07.997Z,46.7
2017-08-08T03:22:10.126Z,46.6
2017-08-08T03:23:11.905Z,46.5
2017-08-08T03:24:14.035Z,46.7
2017-08-08T03:25:16.166Z,46.8
2017-08-08T03:26:17.611Z,46.8
2017-08-08T03:27:19.054Z,46.7
2017-08-08T03:28:20.163Z,46.7
2017-08-08T03:29:21.960Z,46.7
2017-08-08T03:30:23.734Z,46.7
2017-08-08T03:31:25.178Z,46.7
2017-08-08T03:32:27.310Z,46.6
2017-08-08T03:33:29.107Z,46.7
2017-08-08T03:34:31.235Z,46.5
2017-08-08T03:35:33.365Z,46.6
2017-08-08T03:36:35.496Z,46.7
2017-08-08T03:37:37.634Z,46.6
2017-08-08T03:38:39.411Z,46.9
2017-08-08T03:39:40.543Z,46.7
2017-08-08T03:40:42.673Z,46.6
2017-08-08T03:41:44.472Z,46.8
2017-08-08T03:42:46.637Z,46.9
2017-08-08T03:43:48.430Z,46.9
2017-08-08T03:44:50.228Z,46.5
2017-08-08T03:45:51.672Z,46.9
2017-08-08T03:46:53.473Z,46.6
2017-08-08T03:47:55.251Z,46.8
2017-08-08T03:48:56.698Z,46.9
2017-08-08T03:49:58.828Z,46.8
2017-08-08T03:51:00.296Z,46.8
2017-08-08T03:52:02.427Z,46.8
2017-08-08T03:53:03.890Z,46.7
2017-08-08T03:54:05.690Z,46.8
2017-08-08T03:55:07.464Z,46.8
2017-08-08T03:56:09.265Z,47
2017-08-08T03:57:10.737Z,46.6
2017-08-08T03:58:12.517Z,46.8
2017-08-08T03:59:14.315Z,46.8
2017-08-08T04:00:16.118Z,46.7
2017-08-08T04:01:18.251Z,46.8
2017-08-08T04:02:20.380Z,46.7
2017-08-08T04:03:22.182Z,46.8
2017-08-08T04:04:23.981Z,47
2017-08-08T04:05:25.445Z,46.8
2017-08-08T04:06:27.249Z,46.7
2017-08-08T04:07:29.378Z,46.7
2017-08-08T04:08:31.507Z,46.7
2017-08-08T04:09:32.975Z,46.6
2017-08-08T04:10:35.113Z,46.6
2017-08-08T04:11:37.242Z,46.7
2017-08-08T04:12:39.377Z,46.7
2017-08-08T04:13:40.844Z,46.9
2017-08-08T04:14:42.657Z,46.6
2017-08-08T04:15:44.099Z,46.9
2017-08-08T04:16:46.236Z,46.6
2017-08-08T04:17:47.676Z,46.9
2017-08-08T04:18:49.125Z,46.5
2017-08-08T04:19:51.264Z,46.9
2017-08-08T04:20:53.045Z,46.7
2017-08-08T04:21:55.177Z,46.6
2017-08-08T04:22:57.027Z,46.9
2017-08-08T04:23:58.809Z,46.7
2017-08-08T04:25:00.605Z,46.9
2017-08-08T04:26:02.745Z,46.5
2017-08-08T04:27:04.880Z,46.7
2017-08-08T04:28:06.677Z,46.6
2017-08-08T04:29:08.125Z,47
2017-08-08T04:30:09.592Z,46.8
2017-08-08T04:31:11.060Z,46.6
2017-08-08T04:32:13.196Z,46.9
2017-08-08T04:33:14.643Z,46.8
2017-08-08T04:34:16.777Z,46.7
2017-08-08T04:35:18.578Z,46.8
2017-08-08T04:36:20.706Z,46.6
2017-08-08T04:37:22.506Z,46.7
2017-08-08T04:38:23.618Z,46.7
2017-08-08T04:39:25.414Z,46.6
2017-08-08T04:40:26.886Z,46.6
2017-08-08T04:41:28.350Z,46.5
2017-08-08T04:42:30.149Z,46.8
2017-08-08T04:43:31.950Z,46.8
2017-08-08T04:44:34.083Z,47
2017-08-08T04:45:35.885Z,46.6
2017-08-08T04:46:38.021Z,46.8
2017-08-08T04:47:40.148Z,46.8
2017-08-08T04:48:41.954Z,46.9
2017-08-08T04:49:44.079Z,46.6
2017-08-08T04:50:46.215Z,46.9
2017-08-08T04:51:47.657Z,46.8
2017-08-08T04:52:49.791Z,46.8
2017-08-08T04:53:51.586Z,46.8
2017-08-08T04:54:53.388Z,46.9
2017-08-08T04:55:55.518Z,47
2017-08-08T04:56:57.648Z,46.9
2017-08-08T04:57:59.100Z,46.7
2017-08-08T04:59:00.895Z,46.9
2017-08-08T05:00:03.026Z,46.9
2017-08-08T05:01:04.801Z,46.6
2017-08-08T05:02:06.933Z,46.9
2017-08-08T05:03:09.062Z,46.7
2017-08-08T05:04:10.863Z,46.7
2017-08-08T05:05:12.676Z,46.9
2017-08-08T05:06:14.808Z,46.8
2017-08-08T05:07:16.941Z,46.9
2017-08-08T05:08:19.075Z,46.8
2017-08-08T05:09:20.949Z,46.8
2017-08-08T05:10:22.066Z,46.8
2017-08-08T05:11:23.866Z,46.8
2017-08-08T05:12:25.649Z,46.9
2017-08-08T05:13:27.131Z,46.9
2017-08-08T05:14:28.627Z,47
2017-08-08T05:15:30.755Z,46.6
2017-08-08T05:16:32.557Z,47
2017-08-08T05:17:34.341Z,46.8
2017-08-08T05:18:36.138Z,47
2017-08-08T05:19:37.940Z,46.8
2017-08-08T05:20:40.070Z,46.8
2017-08-08T05:21:41.870Z,46.8
2017-08-08T05:22:44.004Z,46.9
2017-08-08T05:23:46.139Z,46.9
2017-08-08T05:24:47.939Z,46.7
2017-08-08T05:25:50.067Z,46.8
2017-08-08T05:26:51.532Z,46.9
2017-08-08T05:27:53.661Z,46.9
2017-08-08T05:28:55.460Z,46.9
2017-08-08T05:29:57.259Z,46.8
2017-08-08T05:30:58.706Z,46.9
2017-08-08T05:32:00.487Z,46.7
2017-08-08T05:33:02.287Z,47.1
2017-08-08T05:34:04.106Z,46.8
2017-08-08T05:35:05.869Z,46.8
2017-08-08T05:36:08.003Z,46.7
2017-08-08T05:37:10.139Z,46.7
2017-08-08T05:38:12.275Z,46.7
2017-08-08T05:39:14.075Z,46.6
2017-08-08T05:40:15.875Z,46.6
2017-08-08T05:41:17.345Z,46.4
2017-08-08T05:42:19.475Z,46.5
2017-08-08T05:43:20.938Z,46.4
2017-08-08T05:44:22.385Z,46.7
2017-08-08T05:45:24.198Z,46.3
2017-08-08T05:46:26.328Z,46.4
2017-08-08T05:47:28.103Z,46.4
2017-08-08T05:48:29.902Z,46.1
2017-08-08T05:49:31.703Z,46.1
2017-08-08T05:50:33.173Z,46.4
2017-08-08T05:51:35.308Z,46.3
2017-08-08T05:52:36.427Z,46.2
2017-08-08T05:53:37.897Z,46.2
2017-08-08T05:54:40.031Z,46.4
2017-08-08T05:55:42.162Z,46.2
2017-08-08T05:56:44.295Z,46.3
2017-08-08T05:57:46.430Z,46.3
2017-08-08T05:58:48.560Z,46.5
2017-08-08T05:59:50.694Z,46.6
2017-08-08T06:00:52.475Z,46.3
2017-08-08T06:01:54.611Z,46.3
2017-08-08T06:02:56.741Z,46.2
2017-08-08T06:03:58.543Z,46.3
2017-08-08T06:05:00.346Z,46.4
2017-08-08T06:06:02.141Z,46.2
2017-08-08T06:07:03.254Z,46.6
2017-08-08T06:08:05.386Z,46.3
2017-08-08T06:09:07.188Z,46.5
2017-08-08T06:10:08.988Z,46.5
2017-08-08T06:11:11.120Z,46.3
2017-08-08T06:12:12.898Z,46.5
2017-08-08T06:13:14.343Z,46.3
2017-08-08T06:14:16.144Z,46.2
2017-08-08T06:15:17.589Z,46.3
2017-08-08T06:16:19.371Z,46.4
2017-08-08T06:17:21.505Z,46.4
2017-08-08T06:18:22.951Z,46.5
2017-08-08T06:19:25.080Z,46.7
2017-08-08T06:20:26.526Z,46.3
2017-08-08T06:21:27.969Z,46.6
2017-08-08T06:22:29.769Z,46.4
2017-08-08T06:23:31.904Z,46.4
2017-08-08T06:24:33.347Z,46.3
2017-08-08T06:25:34.798Z,46.4
2017-08-08T06:26:36.596Z,46.5
2017-08-08T06:27:38.397Z,46.4
2017-08-08T06:28:40.529Z,46.8
2017-08-08T06:29:42.657Z,46.3
2017-08-08T06:30:44.458Z,46.3
2017-08-08T06:31:46.238Z,46.5
2017-08-08T06:32:48.019Z,46.8
2017-08-08T06:33:50.149Z,46.4
2017-08-08T06:34:52.281Z,46.2
2017-08-08T06:35:54.082Z,46.8
2017-08-08T06:36:55.529Z,46.4
2017-08-08T06:37:57.659Z,46.5
2017-08-08T06:38:59.791Z,46.5
2017-08-08T06:40:01.921Z,46.5
2017-08-08T06:41:03.389Z,46.4
2017-08-08T06:42:04.835Z,46.4
2017-08-08T06:43:06.635Z,46.4
2017-08-08T06:44:08.437Z,46.3
2017-08-08T06:45:10.237Z,46.3
2017-08-08T06:46:11.377Z,46.5
2017-08-08T06:47:13.499Z,46.3
2017-08-08T06:48:14.945Z,46.4
2017-08-08T06:49:16.746Z,46.7
2017-08-08T06:50:18.189Z,46.3
2017-08-08T06:51:19.636Z,46.3
2017-08-08T06:52:21.436Z,46.3
2017-08-08T06:53:23.236Z,46.4
2017-08-08T06:54:25.034Z,46.3
2017-08-08T06:55:26.479Z,46.3
2017-08-08T06:56:28.281Z,46.3
2017-08-08T06:57:30.410Z,46.3
2017-08-08T06:58:31.544Z,46.4
2017-08-08T06:59:33.673Z,46.3
2017-08-08T07:00:35.475Z,46.3
2017-08-08T07:01:37.607Z,46.3
2017-08-08T07:02:39.408Z,46.4
2017-08-08T07:03:41.196Z,46.6
2017-08-08T07:04:42.995Z,46.5
2017-08-08T07:05:44.795Z,46.4
2017-08-08T07:06:45.908Z,46.5
2017-08-08T07:07:47.375Z,46.4
2017-08-08T07:08:49.508Z,46.4
2017-08-08T07:09:51.638Z,46.4
2017-08-08T07:10:53.768Z,46.4
2017-08-08T07:11:55.904Z,46.4
2017-08-08T07:12:57.701Z,46.6
2017-08-08T07:13:59.478Z,46.4
2017-08-08T07:15:01.274Z,46.3
2017-08-08T07:16:03.081Z,46.5
2017-08-08T07:17:04.532Z,46.5
2017-08-08T07:18:06.003Z,46.3
2017-08-08T07:19:08.133Z,46.3
2017-08-08T07:20:10.267Z,46.3
2017-08-08T07:21:11.711Z,46.4
2017-08-08T07:22:13.507Z,46.3
2017-08-08T07:23:15.637Z,46.6
2017-08-08T07:24:17.771Z,46.8
2017-08-08T07:25:19.567Z,46.4
2017-08-08T07:26:21.016Z,46.6
2017-08-08T07:27:23.155Z,46.4
2017-08-08T07:28:24.929Z,46.5
2017-08-08T07:29:26.728Z,46.3
2017-08-08T07:30:28.536Z,46.2
2017-08-08T07:31:30.316Z,46.3
2017-08-08T07:32:32.114Z,46.3
2017-08-08T07:33:33.580Z,46
2017-08-08T07:34:35.743Z,46
2017-08-08T07:35:37.543Z,46.3
2017-08-08T07:36:39.680Z,46.2
2017-08-08T07:37:41.480Z,46.1
2017-08-08T07:38:43.281Z,46.3
2017-08-08T07:39:45.080Z,46.2
2017-08-08T07:40:46.214Z,46.3
2017-08-08T07:41:47.661Z,46.2
2017-08-08T07:42:49.797Z,45.8
2017-08-08T07:43:51.574Z,45.9
2017-08-08T07:44:53.376Z,46.2
2017-08-08T07:45:55.510Z,46.3
2017-08-08T07:46:57.313Z,46.6
2017-08-08T07:47:59.116Z,46.1
2017-08-08T07:49:00.920Z,46.3
2017-08-08T07:50:03.053Z,45.8
2017-08-08T07:51:04.854Z,45.7
2017-08-08T07:52:06.653Z,46.1
2017-08-08T07:53:08.789Z,46.3
2017-08-08T07:54:10.592Z,46.3
2017-08-08T07:55:12.721Z,46.1
2017-08-08T07:56:14.522Z,45.9
2017-08-08T07:57:16.653Z,46.1
2017-08-08T07:58:18.438Z,46.2
2017-08-08T07:59:20.235Z,46.2
2017-08-08T08:00:21.349Z,46
2017-08-08T08:01:23.132Z,46
2017-08-08T08:02:24.930Z,46
2017-08-08T08:03:26.399Z,46.2
2017-08-08T08:04:27.863Z,46.4
2017-08-08T08:05:29.650Z,46.3
2017-08-08T08:06:31.451Z,46.3
2017-08-08T08:07:33.253Z,46.2
2017-08-08T08:08:34.762Z,46
2017-08-08T08:09:36.564Z,46
2017-08-08T08:10:38.693Z,46.1
2017-08-08T08:11:40.825Z,46.3
2017-08-08T08:12:41.937Z,46.3
2017-08-08T08:13:43.052Z,46.3
2017-08-08T08:14:44.521Z,46.3
2017-08-08T08:15:46.657Z,46.3
2017-08-08T08:16:48.104Z,46.2
2017-08-08T08:17:49.914Z,46.5
2017-08-08T08:18:51.716Z,46.2
2017-08-08T08:19:53.518Z,46.5
2017-08-08T08:20:55.321Z,46.3
2017-08-08T08:21:57.129Z,46.3
2017-08-08T08:22:59.256Z,46.6
2017-08-08T08:24:00.720Z,46.3
2017-08-08T08:25:02.183Z,46.4
2017-08-08T08:26:03.651Z,46.5
2017-08-08T08:27:05.783Z,46.5
2017-08-08T08:28:07.584Z,46.4
2017-08-08T08:29:08.702Z,46.4
2017-08-08T08:30:10.505Z,46.5
2017-08-08T08:31:12.307Z,46.5
2017-08-08T08:32:13.770Z,46.6
2017-08-08T08:33:15.576Z,46.5
2017-08-08T08:34:17.355Z,46.3
2017-08-08T08:35:19.492Z,46.4
2017-08-08T08:36:20.959Z,46.3
2017-08-08T08:37:22.741Z,46.3
2017-08-08T08:38:24.869Z,46.3
2017-08-08T08:39:26.664Z,46.4
2017-08-08T08:40:28.796Z,46.4
2017-08-08T08:41:30.603Z,46.5
2017-08-08T08:42:32.400Z,46.4
2017-08-08T08:43:34.536Z,46.5
2017-08-08T08:44:36.333Z,46.5
2017-08-08T08:45:38.467Z,46.7
2017-08-08T08:46:40.270Z,46.4
2017-08-08T08:47:41.733Z,46.7
2017-08-08T08:48:43.865Z,46.6
2017-08-08T08:49:45.997Z,46.4
2017-08-08T08:50:48.126Z,46.7
2017-08-08T08:51:49.926Z,46.7
2017-08-08T08:52:51.371Z,46.6
2017-08-08T08:53:53.510Z,46.6
2017-08-08T08:54:55.360Z,46.6
2017-08-08T08:55:57.491Z,46.5
2017-08-08T08:56:59.624Z,46.5
2017-08-08T08:58:01.401Z,46.5
2017-08-08T08:59:03.733Z,46.9
2017-08-08T09:00:05.528Z,46.8
2017-08-08T09:01:07.328Z,46.7
2017-08-08T09:02:08.797Z,47
2017-08-08T09:03:10.933Z,46.8
2017-08-08T09:04:12.395Z,46.7
2017-08-08T09:05:14.198Z,46.6
2017-08-08T09:06:15.638Z,46.8
2017-08-08T09:07:17.439Z,47
2017-08-08T09:08:19.568Z,46.8
2017-08-08T09:09:21.367Z,46.6
2017-08-08T09:10:23.499Z,46.9
2017-08-08T09:11:24.971Z,46.8
2017-08-08T09:12:26.771Z,46.8
2017-08-08T09:13:28.902Z,46.8
2017-08-08T09:14:30.347Z,46.8
2017-08-08T09:15:32.147Z,46.8
2017-08-08T09:16:34.275Z,46.8
2017-08-08T09:17:35.726Z,46.8
2017-08-08T09:18:37.173Z,46.8
2017-08-08T09:19:38.975Z,47
2017-08-08T09:20:41.111Z,46.5
2017-08-08T09:21:42.559Z,46.8
2017-08-08T09:22:44.359Z,47.1
2017-08-08T09:23:46.491Z,47.1
2017-08-08T09:24:48.624Z,46.8
2017-08-08T09:25:50.402Z,47
2017-08-08T09:26:51.513Z,46.8
2017-08-08T09:27:52.633Z,47.1
2017-08-08T09:28:54.099Z,46.7
2017-08-08T09:29:55.873Z,46.7
2017-08-08T09:30:58.005Z,47
2017-08-08T09:32:00.141Z,47
2017-08-08T09:33:01.604Z,46.9
2017-08-08T09:34:03.053Z,46.9
2017-08-08T09:35:04.495Z,46.9
2017-08-08T09:36:06.293Z,47
2017-08-08T09:37:08.072Z,46.7
2017-08-08T09:38:09.867Z,46.9
2017-08-08T09:39:11.666Z,46.8
2017-08-08T09:40:13.468Z,47
2017-08-08T09:41:15.599Z,46.9
2017-08-08T09:42:17.732Z,46.9
2017-08-08T09:43:19.198Z,47.1
2017-08-08T09:44:21.330Z,47.1
2017-08-08T09:45:22.447Z,46.9
2017-08-08T09:46:24.243Z,47.1
2017-08-08T09:47:25.713Z,47.1
2017-08-08T09:48:27.183Z,47
2017-08-08T09:49:28.987Z,47
2017-08-08T09:50:30.454Z,47.1
2017-08-08T09:51:32.255Z,47.1
2017-08-08T09:52:34.391Z,47.3
2017-08-08T09:53:36.196Z,47.2
2017-08-08T09:54:37.993Z,47.1
2017-08-08T09:55:40.126Z,47.1
2017-08-08T09:56:41.922Z,47
2017-08-08T09:57:43.366Z,47.2
2017-08-08T09:58:45.499Z,47.1
2017-08-08T09:59:47.279Z,47.2
2017-08-08T10:00:49.411Z,47
2017-08-08T10:01:51.194Z,47.2
2017-08-08T10:02:53.327Z,47.2
2017-08-08T10:03:54.460Z,47.4
2017-08-08T10:04:56.264Z,47.1
2017-08-08T10:05:58.398Z,47.3
2017-08-08T10:07:00.197Z,47.1
2017-08-08T10:08:01.978Z,47.5
2017-08-08T10:09:04.108Z,47.3
2017-08-08T10:10:05.909Z,47.6
2017-08-08T10:11:07.352Z,47.1
2017-08-08T10:12:09.133Z,47.5
2017-08-08T10:13:10.931Z,47.4
2017-08-08T10:14:12.734Z,47.1
2017-08-08T10:15:14.535Z,47.2
2017-08-08T10:16:16.337Z,47.4
2017-08-08T10:17:18.466Z,47.5
2017-08-08T10:18:20.264Z,47.4
2017-08-08T10:19:22.398Z,47.4
2017-08-08T10:20:24.529Z,47.4
2017-08-08T10:21:26.660Z,47.4
2017-08-08T10:22:27.772Z,47.2
2017-08-08T10:23:29.904Z,47.4
2017-08-08T10:24:31.019Z,47.2
2017-08-08T10:25:32.137Z,47.5
2017-08-08T10:26:33.582Z,47.4
2017-08-08T10:27:35.384Z,47.3
2017-08-08T10:28:37.517Z,47.2
2017-08-08T10:29:39.649Z,47.7
2017-08-08T10:30:41.444Z,47.6
2017-08-08T10:31:43.576Z,47.1
2017-08-08T10:32:45.374Z,47
2017-08-08T10:33:47.502Z,47.4
2017-08-08T10:34:49.632Z,47.3
2017-08-08T10:35:51.426Z,47.3
2017-08-08T10:36:52.893Z,47.3
2017-08-08T10:37:55.025Z,47.2
2017-08-08T10:38:56.822Z,47.7
2017-08-08T10:39:58.952Z,47.6
2017-08-08T10:41:01.083Z,47.4
2017-08-08T10:42:02.882Z,47.3
2017-08-08T10:43:04.682Z,47.5
2017-08-08T10:44:06.479Z,47.4
2017-08-08T10:45:08.254Z,47.4
2017-08-08T10:46:10.058Z,47.1
2017-08-08T10:47:12.188Z,47.4
2017-08-08T10:48:13.660Z,47.8
2017-08-08T10:49:15.793Z,47.4
2017-08-08T10:50:17.935Z,47.7
2017-08-08T10:51:19.733Z,47.7
2017-08-08T10:52:21.538Z,47.6
2017-08-08T10:53:23.667Z,47.6
2017-08-08T10:54:25.136Z,47.6
2017-08-08T10:55:26.589Z,47.5
2017-08-08T10:56:27.723Z,47.8
2017-08-08T10:57:29.852Z,47.7
2017-08-08T10:58:31.652Z,47.9
2017-08-08T10:59:32.764Z,47.8
2017-08-08T11:00:34.230Z,48
2017-08-08T11:01:36.366Z,47.7
2017-08-08T11:02:38.160Z,47.9
2017-08-08T11:03:39.630Z,48.2
2017-08-08T11:04:41.410Z,47.9
2017-08-08T11:05:42.856Z,48
2017-08-08T11:06:44.655Z,47.9
2017-08-08T11:07:46.791Z,48.4
2017-08-08T11:08:47.924Z,47.8
2017-08-08T11:09:49.725Z,47.6
2017-08-08T11:10:51.523Z,48.2
2017-08-08T11:11:53.301Z,48.3
2017-08-08T11:12:54.768Z,47.9
2017-08-08T11:13:56.548Z,48.1
2017-08-08T11:14:58.677Z,47.9
2017-08-08T11:16:00.807Z,47.9
2017-08-08T11:17:02.607Z,47.5
2017-08-08T11:18:04.736Z,48.4
2017-08-08T11:19:06.180Z,48.4
2017-08-08T11:20:08.315Z,48.6
2017-08-08T11:21:10.110Z,48.1
2017-08-08T11:22:11.575Z,48.5
2017-08-08T11:23:13.704Z,48.2
2017-08-08T11:24:15.836Z,48.2
2017-08-08T11:25:17.969Z,48.4
2017-08-08T11:26:19.745Z,48.6
2017-08-08T11:27:21.545Z,48.2
2017-08-08T11:28:22.998Z,48.4
2017-08-08T11:29:24.796Z,47.9
2017-08-08T11:30:26.580Z,47.5
2017-08-08T11:31:28.354Z,48.1
2017-08-08T11:32:30.136Z,48.1
2017-08-08T11:33:32.273Z,47.9
2017-08-08T11:34:34.410Z,48.2
2017-08-08T11:35:36.542Z,48.2
2017-08-08T11:36:38.674Z,48
2017-08-08T11:37:39.805Z,48.4
2017-08-08T11:38:41.585Z,48
2017-08-08T11:39:43.384Z,48.2
2017-08-08T11:40:44.855Z,47.9
2017-08-08T11:41:46.660Z,48.1
2017-08-08T11:42:47.777Z,48.3
2017-08-08T11:43:49.243Z,48.2
2017-08-08T11:44:51.040Z,48.4
2017-08-08T11:45:52.816Z,48.1
2017-08-08T11:46:54.634Z,48
2017-08-08T11:47:56.770Z,48.1
2017-08-08T11:48:58.902Z,48.2
2017-08-08T11:50:00.676Z,47.9
2017-08-08T11:51:02.804Z,48.3
2017-08-08T11:52:04.605Z,48.2
2017-08-08T11:53:06.385Z,48.4
2017-08-08T11:54:08.516Z,48.2
2017-08-08T11:55:09.961Z,48.7
2017-08-08T11:56:12.097Z,48.1
2017-08-08T11:57:13.894Z,48.6
2017-08-08T11:58:15.692Z,48.7
2017-08-08T11:59:17.828Z,48.6
2017-08-08T12:00:19.621Z,48.5
2017-08-08T12:01:21.422Z,48
2017-08-08T12:02:23.558Z,48.7
2017-08-08T12:03:25.330Z,48.1
2017-08-08T12:04:27.467Z,48.5
2017-08-08T12:05:29.267Z,48.1
2017-08-08T12:06:31.066Z,48.4
2017-08-08T12:07:33.201Z,48.1
2017-08-08T12:08:35.001Z,48.3
2017-08-08T12:09:36.778Z,48.2
2017-08-08T12:10:38.247Z,48.9
2017-08-08T12:11:40.378Z,48.1
2017-08-08T12:12:42.181Z,48.1
2017-08-08T12:13:43.975Z,48.8
2017-08-08T12:14:45.770Z,48.6
2017-08-08T12:15:47.573Z,48.7
2017-08-08T12:16:49.350Z,48.6
2017-08-08T12:17:50.466Z,48.5
2017-08-08T12:18:52.248Z,48.5
2017-08-08T12:19:54.381Z,48.6
2017-08-08T12:20:56.513Z,48.7
2017-08-08T12:21:58.312Z,48.4
2017-08-08T12:23:00.098Z,48.4
2017-08-08T12:24:01.870Z,48.7
2017-08-08T12:25:03.720Z,48.2
2017-08-08T12:26:05.853Z,48.3
2017-08-08T12:27:07.984Z,48.5
2017-08-08T12:28:09.435Z,48.5
2017-08-08T12:29:10.878Z,48.8
2017-08-08T12:30:12.322Z,48.6
2017-08-08T12:31:14.120Z,48.5
2017-08-08T12:32:15.904Z,48.4
2017-08-08T12:33:17.367Z,48.4
2017-08-08T12:34:18.812Z,48.3
2017-08-08T12:35:20.252Z,48.9
2017-08-08T12:36:22.054Z,49
2017-08-08T12:37:23.858Z,48.4
2017-08-08T12:38:25.659Z,48.3
2017-08-08T12:39:27.104Z,48.8
2017-08-08T12:40:29.233Z,48.8
2017-08-08T12:41:30.704Z,48.8
2017-08-08T12:42:32.837Z,48.7
2017-08-08T12:43:33.946Z,48.5
2017-08-08T12:44:36.127Z,48.3
2017-08-08T12:45:38.265Z,48.7
2017-08-08T12:46:40.063Z,48.9
2017-08-08T12:47:41.863Z,48.8
2017-08-08T12:48:43.995Z,49.2
2017-08-08T12:49:45.798Z,49.1
2017-08-08T12:50:47.243Z,49.2
2017-08-08T12:51:48.685Z,49.1
2017-08-08T12:52:49.808Z,48.7
2017-08-08T12:53:51.612Z,49.1
2017-08-08T12:54:53.744Z,49.1
2017-08-08T12:55:54.860Z,49.2
2017-08-08T12:56:56.993Z,48.9
2017-08-08T12:57:59.127Z,49.1
2017-08-08T12:59:00.909Z,48.8
2017-08-08T13:00:03.048Z,49.2
2017-08-08T13:01:05.177Z,49
2017-08-08T13:02:07.306Z,49
2017-08-08T13:03:09.441Z,49
2017-08-08T13:04:11.571Z,49.1
2017-08-08T13:05:13.021Z,49
2017-08-08T13:06:15.151Z,49.2
2017-08-08T13:07:16.959Z,49
2017-08-08T13:08:18.756Z,49.1
2017-08-08T13:09:20.558Z,48.4
2017-08-08T13:10:21.673Z,48.2
2017-08-08T13:11:23.812Z,48.9
2017-08-08T13:12:25.584Z,49
2017-08-08T13:13:27.383Z,49
2017-08-08T13:14:29.182Z,49
2017-08-08T13:15:30.958Z,48.9
2017-08-08T13:16:33.090Z,48.8
2017-08-08T13:17:34.890Z,49
2017-08-08T13:18:36.666Z,48.8
2017-08-08T13:19:38.466Z,48.8
2017-08-08T13:20:40.342Z,48.8
2017-08-08T13:21:42.473Z,49.1
2017-08-08T13:22:44.272Z,48.7
2017-08-08T13:23:45.738Z,49
2017-08-08T13:24:47.513Z,49
2017-08-08T13:25:48.985Z,49
2017-08-08T13:26:50.426Z,49.2
2017-08-08T13:27:52.224Z,49.3
2017-08-08T13:28:54.353Z,49.1
2017-08-08T13:29:56.159Z,49.1
2017-08-08T13:30:58.006Z,49.1
2017-08-08T13:32:00.140Z,49.3
2017-08-08T13:33:01.914Z,49
2017-08-08T13:34:03.358Z,49.7
2017-08-08T13:35:05.495Z,49.1
2017-08-08T13:36:07.622Z,49.3
2017-08-08T13:37:09.421Z,49.1
2017-08-08T13:38:10.886Z,49.1
2017-08-08T13:39:12.670Z,49.4
2017-08-08T13:40:14.469Z,49.2
2017-08-08T13:41:15.965Z,49.5
2017-08-08T13:42:17.775Z,49.1
2017-08-08T13:43:19.574Z,49.4
2017-08-08T13:44:21.370Z,49.7
2017-08-08T13:45:23.170Z,49.3